sensor_id;sensor_type;location;lat;lon;timestamp;temperature;humidity
1381;DHT22;684;48.342;10.096;2023-02-11T00:02:18;0.30;30.10
1381;DHT22;684;48.342;10.096;2023-02-11T00:04:44;0.20;29.40
1381;DHT22;684;48.342;10.096;2023-02-11T00:07:12;0.20;29.50
1381;DHT22;684;48.342;10.096;2023-02-11T00:09:39;0.20;29.80
1381;DHT22;684;48.342;10.096;2023-02-11T00:12:06;0.20;30.10
1381;DHT22;684;48.342;10.096;2023-02-11T00:14:32;0.20;30.20
1381;DHT22;684;48.342;10.096;2023-02-11T00:16:59;0.20;30.10
1381;DHT22;684;48.342;10.096;2023-02-11T00:19:26;0.20;30.00
1381;DHT22;684;48.342;10.096;2023-02-11T00:21:53;0.20;29.70
1381;DHT22;684;48.342;10.096;2023-02-11T00:24:21;0.20;29.60
1381;DHT22;684;48.342;10.096;2023-02-11T00:26:47;0.20;29.70
1381;DHT22;684;48.342;10.096;2023-02-11T00:29:14;0.20;29.60
1381;DHT22;684;48.342;10.096;2023-02-11T00:31:41;0.10;29.40
1381;DHT22;684;48.342;10.096;2023-02-11T00:34:08;0.10;29.60
1381;DHT22;684;48.342;10.096;2023-02-11T00:36:35;0.10;29.40
1381;DHT22;684;48.342;10.096;2023-02-11T00:39:02;0.10;29.30
1381;DHT22;684;48.342;10.096;2023-02-11T00:41:30;0.00;29.30
1381;DHT22;684;48.342;10.096;2023-02-11T00:43:57;0.00;29.40
1381;DHT22;684;48.342;10.096;2023-02-11T00:46:24;-0.10;29.60
1381;DHT22;684;48.342;10.096;2023-02-11T00:48:50;-0.10;29.90
1381;DHT22;684;48.342;10.096;2023-02-11T00:51:19;-0.20;30.20
1381;DHT22;684;48.342;10.096;2023-02-11T00:53:46;-0.20;30.30
1381;DHT22;684;48.342;10.096;2023-02-11T00:56:13;-0.20;30.30
1381;DHT22;684;48.342;10.096;2023-02-11T00:58:41;-0.20;30.10
1381;DHT22;684;48.342;10.096;2023-02-11T01:01:07;-0.20;30.20
1381;DHT22;684;48.342;10.096;2023-02-11T01:03:34;-0.20;30.30
1381;DHT22;684;48.342;10.096;2023-02-11T01:06:01;-0.30;30.20
1381;DHT22;684;48.342;10.096;2023-02-11T01:08:28;-0.30;30.30
1381;DHT22;684;48.342;10.096;2023-02-11T01:11:00;-0.30;30.20
1381;DHT22;684;48.342;10.096;2023-02-11T01:13:28;-0.30;30.20
1381;DHT22;684;48.342;10.096;2023-02-11T01:15:57;-0.30;30.50
1381;DHT22;684;48.342;10.096;2023-02-11T01:18:24;-0.30;30.50
1381;DHT22;684;48.342;10.096;2023-02-11T01:20:51;-0.30;30.60
1381;DHT22;684;48.342;10.096;2023-02-11T01:23:19;-0.30;30.50
1381;DHT22;684;48.342;10.096;2023-02-11T01:25:46;-0.30;30.40
1381;DHT22;684;48.342;10.096;2023-02-11T01:28:15;-0.30;30.60
1381;DHT22;684;48.342;10.096;2023-02-11T01:30:42;-0.30;30.50
1381;DHT22;684;48.342;10.096;2023-02-11T01:33:10;-0.30;30.90
1381;DHT22;684;48.342;10.096;2023-02-11T01:35:38;-0.30;30.70
1381;DHT22;684;48.342;10.096;2023-02-11T01:38:05;-0.30;30.70
1381;DHT22;684;48.342;10.096;2023-02-11T01:40:32;-0.20;30.50
1381;DHT22;684;48.342;10.096;2023-02-11T01:42:59;-0.20;30.30
1381;DHT22;684;48.342;10.096;2023-02-11T01:46:01;-0.20;30.20
1381;DHT22;684;48.342;10.096;2023-02-11T01:48:34;-0.20;30.20
1381;DHT22;684;48.342;10.096;2023-02-11T01:51:05;-0.20;29.90
1381;DHT22;684;48.342;10.096;2023-02-11T01:53:33;-0.30;30.10
1381;DHT22;684;48.342;10.096;2023-02-11T01:56:19;-0.30;30.50
1381;DHT22;684;48.342;10.096;2023-02-11T01:59:08;-0.30;30.90
1381;DHT22;684;48.342;10.096;2023-02-11T02:01:38;-0.30;31.40
1381;DHT22;684;48.342;10.096;2023-02-11T02:04:07;-0.30;31.50
1381;DHT22;684;48.342;10.096;2023-02-11T02:06:38;-0.30;31.60
1381;DHT22;684;48.342;10.096;2023-02-11T02:09:08;-0.30;31.70
1381;DHT22;684;48.342;10.096;2023-02-11T02:11:37;-0.30;31.80
1381;DHT22;684;48.342;10.096;2023-02-11T02:14:04;-0.30;31.80
1381;DHT22;684;48.342;10.096;2023-02-11T02:16:33;-0.30;31.90
1381;DHT22;684;48.342;10.096;2023-02-11T02:19:14;-0.30;31.90
1381;DHT22;684;48.342;10.096;2023-02-11T02:22:20;-0.30;32.10
1381;DHT22;684;48.342;10.096;2023-02-11T02:24:58;-0.30;32.40
1381;DHT22;684;48.342;10.096;2023-02-11T02:27:39;-0.20;32.40
1381;DHT22;684;48.342;10.096;2023-02-11T02:33:21;-0.20;32.50
1381;DHT22;684;48.342;10.096;2023-02-11T02:35:59;-0.30;32.40
1381;DHT22;684;48.342;10.096;2023-02-11T02:38:32;-0.30;32.50
1381;DHT22;684;48.342;10.096;2023-02-11T02:41:03;-0.30;32.60
1381;DHT22;684;48.342;10.096;2023-02-11T02:43:32;-0.30;32.60
1381;DHT22;684;48.342;10.096;2023-02-11T02:46:10;-0.30;32.60
1381;DHT22;684;48.342;10.096;2023-02-11T02:48:38;-0.30;32.70
1381;DHT22;684;48.342;10.096;2023-02-11T02:51:12;-0.30;32.40
1381;DHT22;684;48.342;10.096;2023-02-11T02:53:46;-0.30;32.30
1381;DHT22;684;48.342;10.096;2023-02-11T02:56:21;-0.30;32.10
1381;DHT22;684;48.342;10.096;2023-02-11T02:59:12;-0.30;31.70
1381;DHT22;684;48.342;10.096;2023-02-11T03:01:50;-0.30;31.60
1381;DHT22;684;48.342;10.096;2023-02-11T03:04:28;-0.20;31.30
1381;DHT22;684;48.342;10.096;2023-02-11T03:07:02;-0.30;31.20
1381;DHT22;684;48.342;10.096;2023-02-11T03:09:34;-0.30;31.10
1381;DHT22;684;48.342;10.096;2023-02-11T03:12:04;-0.40;31.10
1381;DHT22;684;48.342;10.096;2023-02-11T03:14:32;-0.40;31.20
1381;DHT22;684;48.342;10.096;2023-02-11T03:17:03;-0.40;31.40
1381;DHT22;684;48.342;10.096;2023-02-11T03:19:34;-0.40;31.30
1381;DHT22;684;48.342;10.096;2023-02-11T03:22:04;-0.50;31.10
1381;DHT22;684;48.342;10.096;2023-02-11T03:24:35;-0.50;31.10
1381;DHT22;684;48.342;10.096;2023-02-11T03:27:08;-0.50;30.90
1381;DHT22;684;48.342;10.096;2023-02-11T03:29:40;-0.50;31.00
1381;DHT22;684;48.342;10.096;2023-02-11T03:32:13;-0.50;31.00
1381;DHT22;684;48.342;10.096;2023-02-11T03:34:47;-0.50;31.10
1381;DHT22;684;48.342;10.096;2023-02-11T03:37:18;-0.50;31.30
1381;DHT22;684;48.342;10.096;2023-02-11T03:39:49;-0.50;31.60
1381;DHT22;684;48.342;10.096;2023-02-11T03:42:17;-0.50;31.80
1381;DHT22;684;48.342;10.096;2023-02-11T03:44:50;-0.50;32.20
1381;DHT22;684;48.342;10.096;2023-02-11T03:47:21;-0.40;32.20
1381;DHT22;684;48.342;10.096;2023-02-11T03:49:54;-0.50;32.30
1381;DHT22;684;48.342;10.096;2023-02-11T03:52:24;-0.40;32.50
1381;DHT22;684;48.342;10.096;2023-02-11T03:54:54;-0.40;32.60
1381;DHT22;684;48.342;10.096;2023-02-11T03:57:22;-0.40;32.60
1381;DHT22;684;48.342;10.096;2023-02-11T03:59:51;-0.30;32.70
1381;DHT22;684;48.342;10.096;2023-02-11T04:02:19;-0.30;32.90
1381;DHT22;684;48.342;10.096;2023-02-11T04:04:46;-0.30;32.90
1381;DHT22;684;48.342;10.096;2023-02-11T04:07:14;-0.30;32.90
1381;DHT22;684;48.342;10.096;2023-02-11T04:09:41;-0.20;32.70
1381;DHT22;684;48.342;10.096;2023-02-11T04:12:08;-0.20;32.80
1381;DHT22;684;48.342;10.096;2023-02-11T04:14:35;-0.20;32.80
1381;DHT22;684;48.342;10.096;2023-02-11T04:17:02;-0.20;32.60
1381;DHT22;684;48.342;10.096;2023-02-11T04:19:29;-0.20;32.40
1381;DHT22;684;48.342;10.096;2023-02-11T04:21:56;-0.10;32.30
1381;DHT22;684;48.342;10.096;2023-02-11T04:24:24;-0.10;32.20
1381;DHT22;684;48.342;10.096;2023-02-11T04:26:50;-0.10;32.10
1381;DHT22;684;48.342;10.096;2023-02-11T04:29:17;0.00;31.90
1381;DHT22;684;48.342;10.096;2023-02-11T04:31:44;0.00;31.90
1381;DHT22;684;48.342;10.096;2023-02-11T04:34:11;0.10;31.80
1381;DHT22;684;48.342;10.096;2023-02-11T04:36:38;0.10;31.50
1381;DHT22;684;48.342;10.096;2023-02-11T04:39:05;0.10;31.70
1381;DHT22;684;48.342;10.096;2023-02-11T04:41:33;0.20;31.60
1381;DHT22;684;48.342;10.096;2023-02-11T04:43:59;0.20;31.40
1381;DHT22;684;48.342;10.096;2023-02-11T04:46:26;0.20;31.30
1381;DHT22;684;48.342;10.096;2023-02-11T04:48:53;0.10;31.50
1381;DHT22;684;48.342;10.096;2023-02-11T04:51:20;0.10;31.40
1381;DHT22;684;48.342;10.096;2023-02-11T04:53:46;0.00;31.30
1381;DHT22;684;48.342;10.096;2023-02-11T04:56:13;0.00;31.20
1381;DHT22;684;48.342;10.096;2023-02-11T04:58:41;0.00;31.20
1381;DHT22;684;48.342;10.096;2023-02-11T05:01:09;0.00;31.60
1381;DHT22;684;48.342;10.096;2023-02-11T05:03:36;0.00;31.30
1381;DHT22;684;48.342;10.096;2023-02-11T05:06:04;-0.10;31.70
1381;DHT22;684;48.342;10.096;2023-02-11T05:08:31;-0.10;31.70
1381;DHT22;684;48.342;10.096;2023-02-11T05:10:58;-0.10;31.90
1381;DHT22;684;48.342;10.096;2023-02-11T05:13:26;0.00;31.90
1381;DHT22;684;48.342;10.096;2023-02-11T05:15:54;0.00;31.90
1381;DHT22;684;48.342;10.096;2023-02-11T05:18:22;0.00;32.00
1381;DHT22;684;48.342;10.096;2023-02-11T05:20:48;0.10;32.10
1381;DHT22;684;48.342;10.096;2023-02-11T05:23:15;0.10;32.10
1381;DHT22;684;48.342;10.096;2023-02-11T05:25:42;0.20;31.90
1381;DHT22;684;48.342;10.096;2023-02-11T05:28:08;0.20;32.10
1381;DHT22;684;48.342;10.096;2023-02-11T05:30:35;0.20;32.10
1381;DHT22;684;48.342;10.096;2023-02-11T05:33:03;0.30;32.10
1381;DHT22;684;48.342;10.096;2023-02-11T05:35:30;0.30;32.00
1381;DHT22;684;48.342;10.096;2023-02-11T05:37:57;0.30;32.10
1381;DHT22;684;48.342;10.096;2023-02-11T05:40:24;0.40;32.10
1381;DHT22;684;48.342;10.096;2023-02-11T05:42:50;0.40;32.10
1381;DHT22;684;48.342;10.096;2023-02-11T05:45:17;0.50;32.20
1381;DHT22;684;48.342;10.096;2023-02-11T05:47:44;0.50;32.10
1381;DHT22;684;48.342;10.096;2023-02-11T05:50:12;0.50;31.70
1381;DHT22;684;48.342;10.096;2023-02-11T05:52:39;0.60;31.30
1381;DHT22;684;48.342;10.096;2023-02-11T05:55:06;0.60;31.20
1381;DHT22;684;48.342;10.096;2023-02-11T05:57:33;0.70;30.80
1381;DHT22;684;48.342;10.096;2023-02-11T06:00:00;0.70;30.90
1381;DHT22;684;48.342;10.096;2023-02-11T06:02:26;0.70;30.90
1381;DHT22;684;48.342;10.096;2023-02-11T06:04:53;0.60;30.90
1381;DHT22;684;48.342;10.096;2023-02-11T06:07:21;0.60;30.90
1381;DHT22;684;48.342;10.096;2023-02-11T06:09:48;0.60;31.00
1381;DHT22;684;48.342;10.096;2023-02-11T06:12:14;0.60;31.20
1381;DHT22;684;48.342;10.096;2023-02-11T06:14:41;0.60;31.00
1381;DHT22;684;48.342;10.096;2023-02-11T06:17:08;0.60;31.10
1381;DHT22;684;48.342;10.096;2023-02-11T06:19:35;0.60;31.30
1381;DHT22;684;48.342;10.096;2023-02-11T06:22:01;0.60;31.30
1381;DHT22;684;48.342;10.096;2023-02-11T06:24:29;0.60;31.30
1381;DHT22;684;48.342;10.096;2023-02-11T06:26:56;0.70;31.50
1381;DHT22;684;48.342;10.096;2023-02-11T06:29:23;0.70;31.50
1381;DHT22;684;48.342;10.096;2023-02-11T06:31:50;0.70;31.50
1381;DHT22;684;48.342;10.096;2023-02-11T06:34:16;0.80;31.40
1381;DHT22;684;48.342;10.096;2023-02-11T06:36:43;0.80;31.40
1381;DHT22;684;48.342;10.096;2023-02-11T06:39:11;0.90;30.90
1381;DHT22;684;48.342;10.096;2023-02-11T06:41:39;0.90;31.20
1381;DHT22;684;48.342;10.096;2023-02-11T06:44:06;1.00;31.20
1381;DHT22;684;48.342;10.096;2023-02-11T06:46:33;1.00;31.20
1381;DHT22;684;48.342;10.096;2023-02-11T06:49:00;1.00;31.30
1381;DHT22;684;48.342;10.096;2023-02-11T06:51:26;1.00;31.30
1381;DHT22;684;48.342;10.096;2023-02-11T06:53:53;1.10;31.20
1381;DHT22;684;48.342;10.096;2023-02-11T06:56:22;1.20;31.00
1381;DHT22;684;48.342;10.096;2023-02-11T06:58:53;1.20;30.80
1381;DHT22;684;48.342;10.096;2023-02-11T07:01:21;1.30;31.00
1381;DHT22;684;48.342;10.096;2023-02-11T07:03:48;1.30;30.90
1381;DHT22;684;48.342;10.096;2023-02-11T07:06:17;1.30;30.80
1381;DHT22;684;48.342;10.096;2023-02-11T07:08:44;1.30;31.00
1381;DHT22;684;48.342;10.096;2023-02-11T07:11:13;1.30;30.80
1381;DHT22;684;48.342;10.096;2023-02-11T07:13:40;1.30;30.80
1381;DHT22;684;48.342;10.096;2023-02-11T07:16:10;1.40;30.70
1381;DHT22;684;48.342;10.096;2023-02-11T07:18:37;1.40;30.60
1381;DHT22;684;48.342;10.096;2023-02-11T07:21:05;1.50;30.70
1381;DHT22;684;48.342;10.096;2023-02-11T07:23:32;1.50;30.60
1381;DHT22;684;48.342;10.096;2023-02-11T07:26:02;1.60;30.60
1381;DHT22;684;48.342;10.096;2023-02-11T07:28:28;1.60;30.30
1381;DHT22;684;48.342;10.096;2023-02-11T07:30:55;1.60;30.20
1381;DHT22;684;48.342;10.096;2023-02-11T07:33:23;1.70;30.10
1381;DHT22;684;48.342;10.096;2023-02-11T07:35:50;1.70;29.90
1381;DHT22;684;48.342;10.096;2023-02-11T07:38:16;1.70;29.90
1381;DHT22;684;48.342;10.096;2023-02-11T07:40:43;1.80;30.00
1381;DHT22;684;48.342;10.096;2023-02-11T07:43:10;1.90;29.70
1381;DHT22;684;48.342;10.096;2023-02-11T07:45:37;1.90;29.60
1381;DHT22;684;48.342;10.096;2023-02-11T07:48:05;2.00;29.40
1381;DHT22;684;48.342;10.096;2023-02-11T07:50:33;2.20;29.20
1381;DHT22;684;48.342;10.096;2023-02-11T07:53:00;2.30;29.00
1381;DHT22;684;48.342;10.096;2023-02-11T07:55:27;2.50;28.90
1381;DHT22;684;48.342;10.096;2023-02-11T07:57:54;2.90;28.90
1381;DHT22;684;48.342;10.096;2023-02-11T08:00:21;3.30;27.70
1381;DHT22;684;48.342;10.096;2023-02-11T08:02:48;3.80;26.60
1381;DHT22;684;48.342;10.096;2023-02-11T08:05:15;4.10;25.00
1381;DHT22;684;48.342;10.096;2023-02-11T08:07:43;4.30;24.10
1381;DHT22;684;48.342;10.096;2023-02-11T08:10:09;4.40;23.40
1381;DHT22;684;48.342;10.096;2023-02-11T08:12:36;4.60;22.90
1381;DHT22;684;48.342;10.096;2023-02-11T08:15:03;4.70;22.40
1381;DHT22;684;48.342;10.096;2023-02-11T08:17:30;5.00;22.40
1381;DHT22;684;48.342;10.096;2023-02-11T08:19:57;5.10;21.00
1381;DHT22;684;48.342;10.096;2023-02-11T08:22:23;5.30;20.50
1381;DHT22;684;48.342;10.096;2023-02-11T08:24:51;5.70;20.30
1381;DHT22;684;48.342;10.096;2023-02-11T08:27:18;6.80;19.30
1381;DHT22;684;48.342;10.096;2023-02-11T08:29:45;7.20;17.20
1381;DHT22;684;48.342;10.096;2023-02-11T08:32:12;7.10;16.80
1381;DHT22;684;48.342;10.096;2023-02-11T08:34:38;7.00;16.80
1381;DHT22;684;48.342;10.096;2023-02-11T08:37:05;6.90;16.60
1381;DHT22;684;48.342;10.096;2023-02-11T08:39:33;6.90;16.50
1381;DHT22;684;48.342;10.096;2023-02-11T08:42:01;6.80;16.40
1381;DHT22;684;48.342;10.096;2023-02-11T08:44:28;6.70;16.10
1381;DHT22;684;48.342;10.096;2023-02-11T08:46:55;6.60;16.40
1381;DHT22;684;48.342;10.096;2023-02-11T08:49:22;6.50;17.00
1381;DHT22;684;48.342;10.096;2023-02-11T08:51:49;6.40;17.00
1381;DHT22;684;48.342;10.096;2023-02-11T08:54:16;6.60;17.10
1381;DHT22;684;48.342;10.096;2023-02-11T08:56:43;7.80;16.60
1381;DHT22;684;48.342;10.096;2023-02-11T08:59:13;10.10;13.40
1381;DHT22;684;48.342;10.096;2023-02-11T09:01:42;12.10;9.50
1381;DHT22;684;48.342;10.096;2023-02-11T09:04:11;13.30;6.00
1381;DHT22;684;48.342;10.096;2023-02-11T09:06:37;13.80;4.80
1381;DHT22;684;48.342;10.096;2023-02-11T09:09:04;14.60;3.40
1381;DHT22;684;48.342;10.096;2023-02-11T09:11:32;15.30;2.50
1381;DHT22;684;48.342;10.096;2023-02-11T09:13:59;15.10;2.10
1381;DHT22;684;48.342;10.096;2023-02-11T09:16:29;14.40;2.40
1381;DHT22;684;48.342;10.096;2023-02-11T09:18:58;13.40;3.20
1381;DHT22;684;48.342;10.096;2023-02-11T09:21:25;12.60;4.30
1381;DHT22;684;48.342;10.096;2023-02-11T09:23:52;11.80;5.40
1381;DHT22;684;48.342;10.096;2023-02-11T09:26:21;11.10;6.40
1381;DHT22;684;48.342;10.096;2023-02-11T09:28:49;10.40;7.50
1381;DHT22;684;48.342;10.096;2023-02-11T09:31:18;9.80;8.90
1381;DHT22;684;48.342;10.096;2023-02-11T09:33:47;9.30;10.00
1381;DHT22;684;48.342;10.096;2023-02-11T09:36:16;8.90;10.60
1381;DHT22;684;48.342;10.096;2023-02-11T09:38:44;8.70;11.30
1381;DHT22;684;48.342;10.096;2023-02-11T09:41:32;8.60;11.80
1381;DHT22;684;48.342;10.096;2023-02-11T09:44:02;9.30;11.90
1381;DHT22;684;48.342;10.096;2023-02-11T09:46:33;9.90;10.40
1381;DHT22;684;48.342;10.096;2023-02-11T09:49:02;11.70;9.10
1381;DHT22;684;48.342;10.096;2023-02-11T09:51:38;12.70;5.70
1381;DHT22;684;48.342;10.096;2023-02-11T09:54:12;14.30;4.40
1381;DHT22;684;48.342;10.096;2023-02-11T09:56:39;16.80;1.00
1381;DHT22;684;48.342;10.096;2023-02-11T09:59:09;18.70;1.00
1381;DHT22;684;48.342;10.096;2023-02-11T10:01:40;20.20;1.00
1381;DHT22;684;48.342;10.096;2023-02-11T10:04:17;20.90;1.00
1381;DHT22;684;48.342;10.096;2023-02-11T10:06:50;21.50;1.00
1381;DHT22;684;48.342;10.096;2023-02-11T10:09:38;22.10;1.00
1381;DHT22;684;48.342;10.096;2023-02-11T10:12:21;22.70;1.00
1381;DHT22;684;48.342;10.096;2023-02-11T10:17:51;22.90;1.00
1381;DHT22;684;48.342;10.096;2023-02-11T10:20:29;23.20;1.00
1381;DHT22;684;48.342;10.096;2023-02-11T10:22:59;22.70;1.00
1381;DHT22;684;48.342;10.096;2023-02-11T10:25:28;21.30;1.00
1381;DHT22;684;48.342;10.096;2023-02-11T10:27:58;19.90;1.00
1381;DHT22;684;48.342;10.096;2023-02-11T10:30:28;18.40;1.00
1381;DHT22;684;48.342;10.096;2023-02-11T10:32:59;17.10;1.00
1381;DHT22;684;48.342;10.096;2023-02-11T10:35:30;16.10;1.00
1381;DHT22;684;48.342;10.096;2023-02-11T10:37:58;15.30;1.00
1381;DHT22;684;48.342;10.096;2023-02-11T10:43:06;14.10;1.40
1381;DHT22;684;48.342;10.096;2023-02-11T10:45:38;13.50;2.40
1381;DHT22;684;48.342;10.096;2023-02-11T10:48:36;13.30;2.80
1381;DHT22;684;48.342;10.096;2023-02-11T10:51:14;13.00;3.40
1381;DHT22;684;48.342;10.096;2023-02-11T10:53:41;12.60;3.70
1381;DHT22;684;48.342;10.096;2023-02-11T10:56:11;12.30;4.40
1381;DHT22;684;48.342;10.096;2023-02-11T10:58:42;12.10;5.00
1381;DHT22;684;48.342;10.096;2023-02-11T11:01:09;11.90;5.60
1381;DHT22;684;48.342;10.096;2023-02-11T11:03:38;11.70;6.00
1381;DHT22;684;48.342;10.096;2023-02-11T11:06:08;11.50;6.30
1381;DHT22;684;48.342;10.096;2023-02-11T11:08:40;11.40;6.70
1381;DHT22;684;48.342;10.096;2023-02-11T11:11:10;11.50;7.20
1381;DHT22;684;48.342;10.096;2023-02-11T11:13:38;11.60;7.50
1381;DHT22;684;48.342;10.096;2023-02-11T11:16:17;11.70;7.40
1381;DHT22;684;48.342;10.096;2023-02-11T11:18:46;12.10;7.10
1381;DHT22;684;48.342;10.096;2023-02-11T11:21:18;12.50;6.60
1381;DHT22;684;48.342;10.096;2023-02-11T11:23:48;12.90;5.60
1381;DHT22;684;48.342;10.096;2023-02-11T11:26:16;13.40;6.00
1381;DHT22;684;48.342;10.096;2023-02-11T11:28:52;13.60;4.90
1381;DHT22;684;48.342;10.096;2023-02-11T11:31:22;13.50;4.10
1381;DHT22;684;48.342;10.096;2023-02-11T11:33:51;13.40;4.20
1381;DHT22;684;48.342;10.096;2023-02-11T11:36:24;13.40;4.10
1381;DHT22;684;48.342;10.096;2023-02-11T11:38:57;13.60;4.50
1381;DHT22;684;48.342;10.096;2023-02-11T11:41:27;13.80;3.90
1381;DHT22;684;48.342;10.096;2023-02-11T11:43:57;14.10;4.60
1381;DHT22;684;48.342;10.096;2023-02-11T11:46:27;14.70;3.80
1381;DHT22;684;48.342;10.096;2023-02-11T11:49:02;15.30;3.10
1381;DHT22;684;48.342;10.096;2023-02-11T11:51:34;16.10;2.60
1381;DHT22;684;48.342;10.096;2023-02-11T11:54:05;16.80;1.60
1381;DHT22;684;48.342;10.096;2023-02-11T11:56:36;17.40;1.00
1381;DHT22;684;48.342;10.096;2023-02-11T11:59:10;17.90;1.00
1381;DHT22;684;48.342;10.096;2023-02-11T12:01:52;18.10;1.00
1381;DHT22;684;48.342;10.096;2023-02-11T12:04:37;18.50;1.00
1381;DHT22;684;48.342;10.096;2023-02-11T12:07:19;18.80;1.00
1381;DHT22;684;48.342;10.096;2023-02-11T12:10:05;19.20;1.00
1381;DHT22;684;48.342;10.096;2023-02-11T12:12:42;19.50;1.00
1381;DHT22;684;48.342;10.096;2023-02-11T12:15:24;19.70;1.00
1381;DHT22;684;48.342;10.096;2023-02-11T12:18:06;19.90;1.00
1381;DHT22;684;48.342;10.096;2023-02-11T12:20:58;20.00;1.00
1381;DHT22;684;48.342;10.096;2023-02-11T12:23:45;20.00;1.00
1381;DHT22;684;48.342;10.096;2023-02-11T12:26:17;20.20;1.00
1381;DHT22;684;48.342;10.096;2023-02-11T12:28:56;20.30;1.00
1381;DHT22;684;48.342;10.096;2023-02-11T12:31:33;20.30;1.00
1381;DHT22;684;48.342;10.096;2023-02-11T12:34:25;20.40;1.00
1381;DHT22;684;48.342;10.096;2023-02-11T12:37:04;20.40;1.00
1381;DHT22;684;48.342;10.096;2023-02-11T12:39:41;20.20;1.00
1381;DHT22;684;48.342;10.096;2023-02-11T12:42:30;20.10;1.00
1381;DHT22;684;48.342;10.096;2023-02-11T12:45:35;20.00;1.00
1381;DHT22;684;48.342;10.096;2023-02-11T12:48:21;19.80;1.00
1381;DHT22;684;48.342;10.096;2023-02-11T12:50:55;19.60;1.00
1381;DHT22;684;48.342;10.096;2023-02-11T12:56:23;19.20;1.00
1381;DHT22;684;48.342;10.096;2023-02-11T12:58:56;18.90;1.00
1381;DHT22;684;48.342;10.096;2023-02-11T13:01:28;18.50;1.00
1381;DHT22;684;48.342;10.096;2023-02-11T13:03:58;18.20;1.00
1381;DHT22;684;48.342;10.096;2023-02-11T13:06:36;18.20;1.00
1381;DHT22;684;48.342;10.096;2023-02-11T13:09:10;18.00;1.00
1381;DHT22;684;48.342;10.096;2023-02-11T13:11:43;17.50;1.00
1381;DHT22;684;48.342;10.096;2023-02-11T13:14:22;17.00;1.00
1381;DHT22;684;48.342;10.096;2023-02-11T13:16:50;16.50;1.00
1381;DHT22;684;48.342;10.096;2023-02-11T13:19:22;16.10;1.00
1381;DHT22;684;48.342;10.096;2023-02-11T13:22:10;15.70;1.00
1381;DHT22;684;48.342;10.096;2023-02-11T13:24:42;15.30;1.00
1381;DHT22;684;48.342;10.096;2023-02-11T13:27:21;15.00;1.90
1381;DHT22;684;48.342;10.096;2023-02-11T13:30:11;14.70;2.00
1381;DHT22;684;48.342;10.096;2023-02-11T13:33:17;14.50;2.70
1381;DHT22;684;48.342;10.096;2023-02-11T13:35:48;14.10;3.30
1381;DHT22;684;48.342;10.096;2023-02-11T13:38:21;13.90;3.60
1381;DHT22;684;48.342;10.096;2023-02-11T13:41:00;13.70;3.90
1381;DHT22;684;48.342;10.096;2023-02-11T13:43:30;13.50;4.60
1381;DHT22;684;48.342;10.096;2023-02-11T13:45:59;13.30;4.60
1381;DHT22;684;48.342;10.096;2023-02-11T13:48:28;13.10;4.80
1381;DHT22;684;48.342;10.096;2023-02-11T13:50:57;13.00;5.30
1381;DHT22;684;48.342;10.096;2023-02-11T13:53:26;12.80;5.50
1381;DHT22;684;48.342;10.096;2023-02-11T13:56:05;12.80;5.50
1381;DHT22;684;48.342;10.096;2023-02-11T13:58:35;12.60;5.90
1381;DHT22;684;48.342;10.096;2023-02-11T14:01:05;12.50;6.30
1381;DHT22;684;48.342;10.096;2023-02-11T14:03:34;12.40;6.50
1381;DHT22;684;48.342;10.096;2023-02-11T14:06:27;12.20;6.90
1381;DHT22;684;48.342;10.096;2023-02-11T14:09:44;12.10;7.00
1381;DHT22;684;48.342;10.096;2023-02-11T14:12:33;12.00;7.30
1381;DHT22;684;48.342;10.096;2023-02-11T14:15:25;11.90;7.80
1381;DHT22;684;48.342;10.096;2023-02-11T14:17:53;11.80;7.90
1381;DHT22;684;48.342;10.096;2023-02-11T14:20:46;11.70;8.00
1381;DHT22;684;48.342;10.096;2023-02-11T14:23:23;11.60;8.00
1381;DHT22;684;48.342;10.096;2023-02-11T14:25:59;11.50;8.10
1381;DHT22;684;48.342;10.096;2023-02-11T14:28:28;11.50;8.30
1381;DHT22;684;48.342;10.096;2023-02-11T14:31:05;11.40;8.60
1381;DHT22;684;48.342;10.096;2023-02-11T14:34:07;11.30;8.50
1381;DHT22;684;48.342;10.096;2023-02-11T14:36:48;11.30;8.90
1381;DHT22;684;48.342;10.096;2023-02-11T14:39:28;11.20;9.10
1381;DHT22;684;48.342;10.096;2023-02-11T14:42:00;11.10;9.20
1381;DHT22;684;48.342;10.096;2023-02-11T14:44:30;11.10;9.40
1381;DHT22;684;48.342;10.096;2023-02-11T14:46:59;11.00;9.50
1381;DHT22;684;48.342;10.096;2023-02-11T14:49:28;10.90;9.80
1381;DHT22;684;48.342;10.096;2023-02-11T14:51:59;11.00;10.20
1381;DHT22;684;48.342;10.096;2023-02-11T14:54:29;10.80;10.40
1381;DHT22;684;48.342;10.096;2023-02-11T14:57:08;10.70;10.60
1381;DHT22;684;48.342;10.096;2023-02-11T14:59:37;10.60;11.10
1381;DHT22;684;48.342;10.096;2023-02-11T15:02:19;10.50;11.10
1381;DHT22;684;48.342;10.096;2023-02-11T15:04:46;10.40;11.20
1381;DHT22;684;48.342;10.096;2023-02-11T15:07:14;10.30;11.40
1381;DHT22;684;48.342;10.096;2023-02-11T15:09:45;10.30;11.70
1381;DHT22;684;48.342;10.096;2023-02-11T15:12:17;10.20;11.90
1381;DHT22;684;48.342;10.096;2023-02-11T15:14:50;10.10;12.30
1381;DHT22;684;48.342;10.096;2023-02-11T15:17:22;10.00;12.50
1381;DHT22;684;48.342;10.096;2023-02-11T15:19:51;10.00;12.70
1381;DHT22;684;48.342;10.096;2023-02-11T15:22:22;9.90;12.80
1381;DHT22;684;48.342;10.096;2023-02-11T15:25:01;9.80;12.80
1381;DHT22;684;48.342;10.096;2023-02-11T15:27:37;9.70;13.10
1381;DHT22;684;48.342;10.096;2023-02-11T15:30:27;9.60;13.10
1381;DHT22;684;48.342;10.096;2023-02-11T15:32:56;9.60;13.20
1381;DHT22;684;48.342;10.096;2023-02-11T15:35:25;9.50;13.30
1381;DHT22;684;48.342;10.096;2023-02-11T15:37:54;9.40;13.40
1381;DHT22;684;48.342;10.096;2023-02-11T15:40:23;9.40;13.50
1381;DHT22;684;48.342;10.096;2023-02-11T15:42:54;9.30;13.70
1381;DHT22;684;48.342;10.096;2023-02-11T15:45:23;9.20;13.90
1381;DHT22;684;48.342;10.096;2023-02-11T15:47:58;9.20;13.90
1381;DHT22;684;48.342;10.096;2023-02-11T15:50:27;9.10;14.20
1381;DHT22;684;48.342;10.096;2023-02-11T15:52:55;9.10;14.40
1381;DHT22;684;48.342;10.096;2023-02-11T15:55:22;9.00;14.70
1381;DHT22;684;48.342;10.096;2023-02-11T15:57:53;8.90;14.90
1381;DHT22;684;48.342;10.096;2023-02-11T16:00:23;8.80;15.10
1381;DHT22;684;48.342;10.096;2023-02-11T16:02:51;8.60;15.30
1381;DHT22;684;48.342;10.096;2023-02-11T16:05:27;8.60;15.40
1381;DHT22;684;48.342;10.096;2023-02-11T16:07:54;8.40;15.60
1381;DHT22;684;48.342;10.096;2023-02-11T16:10:25;8.30;15.60
1381;DHT22;684;48.342;10.096;2023-02-11T16:12:55;8.20;15.80
1381;DHT22;684;48.342;10.096;2023-02-11T16:15:45;8.10;16.00
1381;DHT22;684;48.342;10.096;2023-02-11T16:18:21;8.00;16.10
1381;DHT22;684;48.342;10.096;2023-02-11T16:20:52;7.90;16.20
1381;DHT22;684;48.342;10.096;2023-02-11T16:23:21;7.80;16.10
1381;DHT22;684;48.342;10.096;2023-02-11T16:25:55;7.70;16.30
1381;DHT22;684;48.342;10.096;2023-02-11T16:28:23;7.60;16.40
1381;DHT22;684;48.342;10.096;2023-02-11T16:30:51;7.60;16.40
1381;DHT22;684;48.342;10.096;2023-02-11T16:33:19;7.50;16.60
1381;DHT22;684;48.342;10.096;2023-02-11T16:35:45;7.40;16.60
1381;DHT22;684;48.342;10.096;2023-02-11T16:38:15;7.40;16.60
1381;DHT22;684;48.342;10.096;2023-02-11T16:40:42;7.30;16.70
1381;DHT22;684;48.342;10.096;2023-02-11T16:43:10;7.20;16.80
1381;DHT22;684;48.342;10.096;2023-02-11T16:45:38;7.10;16.90
1381;DHT22;684;48.342;10.096;2023-02-11T16:48:05;7.00;17.10
1381;DHT22;684;48.342;10.096;2023-02-11T16:50:33;7.10;17.20
1381;DHT22;684;48.342;10.096;2023-02-11T16:53:01;6.90;17.30